Time;durP1;ratioP1;P1;durP2;ratioP2;P2;SDS_P1;SDS_P2;PMS_P1;PMS_P2;Temp;Humidity;BMP_temperature;BMP_pressure;BME280_temperature;BME280_humidity;BME280_pressure;Samples;Min_cycle;Max_cycle;Signal;HPM_P1;HPM_P2
2023/05/04 00:00:29;;;;;;;;;4.50;4.50;;;;;;;;5072413;28;9554;-65
2023/05/04 00:02:55;;;;;;;;;4.00;4.00;;;;;;;;5072609;28;8792;-65
2023/05/04 00:05:20;;;;;;;;;5.50;5.00;;;;;;;;5072575;28;8822;-66
2023/05/04 00:07:45;;;;;;;;;5.25;4.00;;;;;;;;5072743;28;9558;-66
2023/05/04 00:10:11;;;;;;;;;2.75;2.75;;;;;;;;5072569;28;8982;-67
2023/05/04 00:12:38;;;;;;;;;6.00;6.00;;;;;;;;5072582;28;8784;-66
2023/05/04 00:15:03;;;;;;;;;6.00;6.00;;;;;;;;5071054;28;11542;-66
2023/05/04 00:17:29;;;;;;;;;7.50;5.00;;;;;;;;5072002;28;11410;-66
2023/05/04 00:19:54;;;;;;;;;6.50;4.25;;;;;;;;5072134;28;8792;-66
2023/05/04 00:22:19;;;;;;;;;6.50;3.75;;;;;;;;5071157;28;8835;-66
2023/05/04 00:24:44;;;;;;;;;4.00;4.00;;;;;;;;5072372;28;8827;-66
2023/05/04 00:27:10;;;;;;;;;4.00;4.00;;;;;;;;5072317;28;8910;-67
2023/05/04 00:29:35;;;;;;;;;5.00;5.00;;;;;;;;5072252;28;8800;-66
2023/05/04 00:32:00;;;;;;;;;4.50;4.00;;;;;;;;5072306;28;8838;-68
2023/05/04 00:34:26;;;;;;;;;4.00;3.00;;;;;;;;5071921;28;8804;-67
2023/05/04 00:36:51;;;;;;;;;3.00;3.00;;;;;;;;5071896;28;8824;-67
2023/05/04 00:39:16;;;;;;;;;4.00;3.75;;;;;;;;5072421;28;9527;-67
2023/05/04 00:41:41;;;;;;;;;7.00;5.00;;;;;;;;5071737;28;8823;-68
2023/05/04 00:44:07;;;;;;;;;5.00;3.25;;;;;;;;5071958;28;8784;-68
2023/05/04 00:46:32;;;;;;;;;3.00;3.00;;;;;;;;5070653;28;8804;-68
2023/05/04 00:48:58;;;;;;;;;5.00;5.00;;;;;;;;5071858;28;8830;-68
2023/05/04 00:51:25;;;;;;;;;4.00;4.00;;;;;;;;5071554;28;8784;-67
2023/05/04 00:53:51;;;;;;;;;3.25;2.00;;;;;;;;5071779;28;8807;-68
2023/05/04 00:56:16;;;;;;;;;5.50;4.00;;;;;;;;5071693;28;11368;-68
2023/05/04 00:58:42;;;;;;;;;3.00;3.00;;;;;;;;5071463;28;8836;-69
2023/05/04 01:01:07;;;;;;;;;3.75;3.75;;;;;;;;5071612;28;8897;-68
2023/05/04 01:03:32;;;;;;;;;4.00;4.00;;;;;;;;5071791;28;8808;-67
2023/05/04 01:06:04;;;;;;;;;4.25;4.25;;;;;;;;5071389;28;8800;-67
2023/05/04 01:08:31;;;;;;;;;4.00;4.00;;;;;;;;5071031;28;8800;-68
2023/05/04 01:11:02;;;;;;;;;4.00;4.00;;;;;;;;5070208;28;11526;-68
2023/05/04 01:13:29;;;;;;;;;7.25;5.00;;;;;;;;5071287;28;11441;-68
2023/05/04 01:15:55;;;;;;;;;5.00;4.00;;;;;;;;5071262;28;12162;-67
2023/05/04 01:18:22;;;;;;;;;4.00;4.00;;;;;;;;5071242;28;11405;-67
2023/05/04 01:20:47;;;;;;;;;5.00;5.00;;;;;;;;5071208;28;8780;-67
2023/05/04 01:23:12;;;;;;;;;5.00;4.00;;;;;;;;5070281;28;11380;-68
2023/05/04 01:25:43;;;;;;;;;6.50;6.50;;;;;;;;5070844;28;8796;-67
2023/05/04 01:28:13;;;;;;;;;7.00;5.00;;;;;;;;5071091;28;8804;-69
2023/05/04 01:30:42;;;;;;;;;4.75;4.00;;;;;;;;5069634;28;11473;-67
2023/05/04 01:33:07;;;;;;;;;6.50;4.00;;;;;;;;5071044;28;11435;-68
2023/05/04 01:35:33;;;;;;;;;5.00;5.00;;;;;;;;5070816;28;11443;-67
2023/05/04 01:37:58;;;;;;;;;4.75;4.75;;;;;;;;5070916;28;9420;-67
2023/05/04 01:40:23;;;;;;;;;7.00;6.50;;;;;;;;5071010;28;8831;-67
2023/05/04 01:42:49;;;;;;;;;6.00;4.50;;;;;;;;5070517;28;8877;-67
2023/05/04 01:45:14;;;;;;;;;5.50;5.50;;;;;;;;5071039;28;8791;-67
2023/05/04 01:47:39;;;;;;;;;5.00;4.75;;;;;;;;5070799;28;8808;-68
2023/05/04 01:50:04;;;;;;;;;4.00;4.00;;;;;;;;5070494;28;8784;-68
2023/05/04 01:52:30;;;;;;;;;8.25;6.50;;;;;;;;5069934;28;8893;-68
2023/05/04 01:54:56;;;;;;;;;4.25;4.25;;;;;;;;5070876;28;8853;-68
2023/05/04 01:57:21;;;;;;;;;4.25;4.25;;;;;;;;5070456;28;8838;-68
2023/05/04 01:59:46;;;;;;;;;6.00;6.00;;;;;;;;5070326;28;9550;-68
2023/05/04 18:12:31;;;;;;;;;11.25;7.00;;;;;;;;5105137;27;14273;-65
2023/05/04 18:14:56;;;;;;;;;9.25;6.50;;;;;;;;5105057;27;10286;-66
2023/05/04 18:17:22;;;;;;;;;9.50;8.75;;;;;;;;5111051;28;10859;-65
2023/05/04 18:19:47;;;;;;;;;5.25;5.25;;;;;;;;5107742;28;8806;-65
2023/05/04 18:22:12;;;;;;;;;12.00;9.75;;;;;;;;5106512;28;8830;-65
2023/05/04 18:24:37;;;;;;;;;8.75;6.50;;;;;;;;5107298;28;8800;-64
2023/05/04 18:27:03;;;;;;;;;13.00;13.00;;;;;;;;5107347;28;9669;-66
2023/05/04 18:29:28;;;;;;;;;9.25;9.00;;;;;;;;5106147;28;8831;-70
2023/05/04 18:31:54;;;;;;;;;16.25;13.50;;;;;;;;5107330;28;8926;-70
2023/05/04 18:34:19;;;;;;;;;9.75;8.00;;;;;;;;5103409;28;8823;-71
2023/05/04 18:36:44;;;;;;;;;8.00;6.00;;;;;;;;5103530;28;9101;-72
2023/05/04 18:39:10;;;;;;;;;5.75;5.75;;;;;;;;5107023;28;8808;-69
2023/05/04 18:41:39;;;;;;;;;10.00;6.50;;;;;;;;5106763;28;8808;-71
2023/05/04 18:44:05;;;;;;;;;8.75;5.25;;;;;;;;5107161;28;8910;-73
2023/05/04 18:46:30;;;;;;;;;6.50;4.25;;;;;;;;5105171;28;9689;-78
2023/05/04 18:48:58;;;;;;;;;5.00;4.00;;;;;;;;5105645;28;9584;-73
2023/05/04 18:51:25;;;;;;;;;5.50;5.50;;;;;;;;5106943;28;8816;-73
2023/05/04 18:53:50;;;;;;;;;5.25;5.00;;;;;;;;5105497;28;9799;-71
2023/05/04 18:56:15;;;;;;;;;4.75;4.00;;;;;;;;5105008;28;9983;-69
2023/05/04 18:58:41;;;;;;;;;4.25;4.25;;;;;;;;5106833;28;8784;-73
2023/05/04 19:01:08;;;;;;;;;8.75;8.75;;;;;;;;5106711;28;8824;-72
2023/05/04 19:03:34;;;;;;;;;9.00;7.75;;;;;;;;5106681;28;9785;-71
2023/05/04 19:06:00;;;;;;;;;8.00;8.00;;;;;;;;5103719;27;10019;-71
2023/05/04 19:08:25;;;;;;;;;10.00;9.75;;;;;;;;5106416;28;8792;-70
2023/05/04 19:10:50;;;;;;;;;5.00;5.00;;;;;;;;5106075;28;8942;-71
2023/05/04 19:13:23;;;;;;;;;7.25;5.25;;;;;;;;5106575;28;8819;-71
2023/05/04 19:15:48;;;;;;;;;11.00;9.00;;;;;;;;5103493;27;9541;-74
2023/05/04 19:18:14;;;;;;;;;7.50;7.50;;;;;;;;5104468;28;9807;-74
2023/05/04 19:20:43;;;;;;;;;7.00;7.00;;;;;;;;5105417;28;9010;-68
2023/05/04 19:23:10;;;;;;;;;30.25;25.75;;;;;;;;5095972;28;8807;-68
2023/05/04 19:25:44;;;;;;;;;31.50;27.00;;;;;;;;5091201;28;10607;-67
2023/05/04 19:28:10;;;;;;;;;6.00;6.00;;;;;;;;5091259;28;10790;-67
2023/05/04 19:30:36;;;;;;;;;16.00;14.75;;;;;;;;5087562;28;10963;-67
2023/05/04 19:33:01;;;;;;;;;25.50;20.75;;;;;;;;5090828;28;8876;-68
2023/05/04 19:35:27;;;;;;;;;17.75;16.75;;;;;;;;5092070;28;8812;-67
2023/05/04 19:37:53;;;;;;;;;12.00;11.00;;;;;;;;5087628;28;8827;-68
2023/05/04 19:40:18;;;;;;;;;7.50;6.25;;;;;;;;5091187;28;8834;-67
2023/05/04 19:42:44;;;;;;;;;5.25;5.25;;;;;;;;5090794;28;10059;-67
2023/05/04 19:45:10;;;;;;;;;5.00;3.50;;;;;;;;5091790;28;9254;-67
2023/05/04 19:47:37;;;;;;;;;4.50;4.50;;;;;;;;5090977;28;10360;-66
2023/05/04 19:50:02;;;;;;;;;11.50;8.00;;;;;;;;5090718;28;8808;-70
2023/05/04 19:52:28;;;;;;;;;5.50;4.25;;;;;;;;5092260;28;9986;-73
2023/05/04 19:54:53;;;;;;;;;4.00;3.00;;;;;;;;4999266;27;10879;-73
2023/05/04 19:57:20;;;;;;;;;3.00;3.00;;;;;;;;5033070;28;8914;-73
2023/05/04 19:59:45;;;;;;;;;3.25;3.25;;;;;;;;5032241;28;8950;-73
2023/05/04 20:02:13;;;;;;;;;4.00;4.00;;;;;;;;5031517;28;9749;-73
2023/05/04 20:04:38;;;;;;;;;6.25;4.00;;;;;;;;5031802;28;8831;-76
2023/05/04 20:07:04;;;;;;;;;4.25;3.00;;;;;;;;5028765;28;9965;-75
2023/05/04 20:09:29;;;;;;;;;6.00;4.75;;;;;;;;5030665;28;8820;-75
2023/05/04 20:11:54;;;;;;;;;4.00;4.00;;;;;;;;5030029;28;8840;-68
2023/05/04 20:14:20;;;;;;;;;4.00;4.00;;;;;;;;5018359;28;8866;-67
2023/05/04 20:16:45;;;;;;;;;6.50;6.50;;;;;;;;5044900;28;8844;-72
2023/05/04 20:19:10;;;;;;;;;5.00;5.00;;;;;;;;5029365;28;8839;-79
2023/05/04 20:21:36;;;;;;;;;4.00;4.00;;;;;;;;5030113;28;8831;-71
2023/05/04 20:24:02;;;;;;;;;9.25;8.75;;;;;;;;5031620;28;8915;-74
2023/05/04 20:26:28;;;;;;;;;5.25;5.25;;;;;;;;5029992;28;8816;-70
2023/05/04 20:28:53;;;;;;;;;4.00;4.00;;;;;;;;5031409;28;10059;-71
2023/05/04 20:31:18;;;;;;;;;4.00;4.00;;;;;;;;5031556;28;8892;-70
2023/05/04 20:33:43;;;;;;;;;8.50;5.75;;;;;;;;5030358;28;8800;-68
2023/05/04 20:36:10;;;;;;;;;4.75;4.75;;;;;;;;5030776;28;8823;-69
2023/05/04 20:38:35;;;;;;;;;4.00;4.00;;;;;;;;5031055;28;8898;-69
2023/05/04 20:41:07;;;;;;;;;4.75;4.75;;;;;;;;5030969;28;10190;-80
2023/05/04 20:43:42;;;;;;;;;7.25;4.75;;;;;;;;5030540;28;8971;-82
2023/05/04 20:46:07;;;;;;;;;9.25;8.75;;;;;;;;5028612;28;10289;-82
2023/05/04 20:48:34;;;;;;;;;9.50;9.50;;;;;;;;5028352;28;10637;-80
2023/05/04 20:50:59;;;;;;;;;10.00;10.00;;;;;;;;5028253;28;8823;-75
2023/05/04 20:53:26;;;;;;;;;6.50;4.50;;;;;;;;5027175;28;10260;-73
2023/05/04 20:55:51;;;;;;;;;5.00;4.00;;;;;;;;5027125;28;8966;-70
2023/05/04 20:58:19;;;;;;;;;6.75;6.00;;;;;;;;5027591;28;10133;-70
2023/05/04 21:00:44;;;;;;;;;5.00;4.75;;;;;;;;5027210;28;8843;-71
2023/05/04 21:03:10;;;;;;;;;5.25;4.00;;;;;;;;5028527;28;10289;-70
2023/05/04 21:05:37;;;;;;;;;5.00;4.00;;;;;;;;5027670;28;8835;-70
2023/05/04 21:08:02;;;;;;;;;4.00;4.00;;;;;;;;5027823;28;10259;-67
2023/05/04 21:10:27;;;;;;;;;5.00;5.00;;;;;;;;5028763;28;11207;-67
2023/05/04 21:12:53;;;;;;;;;7.00;5.00;;;;;;;;5030487;28;8823;-68
2023/05/04 21:15:18;;;;;;;;;8.00;5.00;;;;;;;;5030064;28;8966;-68
2023/05/04 21:17:43;;;;;;;;;8.00;4.50;;;;;;;;5029565;28;8821;-68
2023/05/04 21:20:09;;;;;;;;;5.75;5.00;;;;;;;;5030254;28;8803;-67
2023/05/04 21:22:34;;;;;;;;;5.00;4.00;;;;;;;;5030284;28;8815;-67
2023/05/04 21:24:59;;;;;;;;;8.25;4.25;;;;;;;;5030428;28;8836;-67
2023/05/04 21:27:25;;;;;;;;;7.50;5.00;;;;;;;;5029945;28;8812;-67
2023/05/04 21:29:50;;;;;;;;;7.75;7.50;;;;;;;;5030256;28;8843;-67
2023/05/04 21:32:15;;;;;;;;;9.00;9.00;;;;;;;;5028709;28;8823;-68
2023/05/04 21:34:41;;;;;;;;;11.25;10.00;;;;;;;;5028924;28;8850;-67
2023/05/04 21:37:06;;;;;;;;;9.25;9.25;;;;;;;;5030087;28;8808;-67
2023/05/04 21:39:31;;;;;;;;;7.50;7.50;;;;;;;;5030012;28;8853;-66
2023/05/04 21:41:56;;;;;;;;;9.75;9.50;;;;;;;;5029512;28;8866;-67
2023/05/04 21:44:22;;;;;;;;;15.50;11.75;;;;;;;;5030040;28;8830;-67
2023/05/04 21:46:47;;;;;;;;;12.50;10.00;;;;;;;;5029502;28;8791;-68
2023/05/04 21:49:12;;;;;;;;;9.00;9.00;;;;;;;;5029732;28;8846;-67
2023/05/04 21:51:37;;;;;;;;;9.00;8.00;;;;;;;;5029519;28;8815;-67
2023/05/04 21:54:03;;;;;;;;;11.50;10.00;;;;;;;;5028303;28;8912;-67
2023/05/04 21:56:28;;;;;;;;;7.25;7.00;;;;;;;;5029792;28;8808;-67
2023/05/04 21:58:53;;;;;;;;;8.50;5.00;;;;;;;;5029526;28;8822;-67
2023/05/04 22:01:19;;;;;;;;;7.00;7.00;;;;;;;;5027934;28;8873;-67
2023/05/04 22:03:44;;;;;;;;;8.50;7.50;;;;;;;;5029409;28;8804;-67
2023/05/04 22:06:10;;;;;;;;;5.50;5.50;;;;;;;;5028162;28;8823;-67
2023/05/04 22:08:36;;;;;;;;;6.50;6.50;;;;;;;;5028568;28;8849;-69
2023/05/04 22:11:01;;;;;;;;;5.50;5.50;;;;;;;;5028178;28;8850;-68
2023/05/04 22:13:26;;;;;;;;;9.00;9.00;;;;;;;;5028325;28;8819;-68
2023/05/04 22:15:52;;;;;;;;;7.75;4.50;;;;;;;;5027008;28;8842;-68
2023/05/04 22:18:18;;;;;;;;;8.00;6.00;;;;;;;;5028725;28;8796;-68
2023/05/04 22:20:43;;;;;;;;;9.00;5.25;;;;;;;;5029311;28;8925;-68
2023/05/04 22:23:08;;;;;;;;;8.25;7.50;;;;;;;;5029857;28;8804;-68
2023/05/04 22:25:34;;;;;;;;;7.00;7.00;;;;;;;;5029800;28;8800;-68
2023/05/04 22:28:00;;;;;;;;;8.50;7.25;;;;;;;;5029858;28;8780;-68
2023/05/04 22:30:25;;;;;;;;;7.00;7.00;;;;;;;;5029483;28;8788;-68
2023/05/04 22:32:51;;;;;;;;;9.25;7.50;;;;;;;;5029516;28;8850;-68
2023/05/04 22:35:17;;;;;;;;;7.75;7.75;;;;;;;;5029726;28;8799;-68
2023/05/04 22:37:42;;;;;;;;;8.00;8.00;;;;;;;;5029487;28;8799;-67
2023/05/04 22:40:08;;;;;;;;;10.00;8.25;;;;;;;;5028269;28;8800;-67
2023/05/04 22:42:33;;;;;;;;;8.25;7.00;;;;;;;;5029519;28;8847;-68
2023/05/04 22:44:58;;;;;;;;;7.25;7.00;;;;;;;;5028168;28;8808;-68
2023/05/04 22:47:24;;;;;;;;;6.00;6.00;;;;;;;;5028194;28;8808;-68
2023/05/04 22:49:53;;;;;;;;;6.75;6.75;;;;;;;;5028138;28;8892;-68
2023/05/04 22:52:18;;;;;;;;;6.50;6.50;;;;;;;;5029610;28;8815;-68
2023/05/04 22:54:44;;;;;;;;;9.50;7.75;;;;;;;;5029565;28;10513;-68
2023/05/04 22:57:09;;;;;;;;;7.00;7.00;;;;;;;;5029805;28;8799;-68
2023/05/04 22:59:35;;;;;;;;;9.25;9.00;;;;;;;;5032966;28;8910;-68
2023/05/04 23:02:00;;;;;;;;;5.50;3.50;;;;;;;;5033000;28;8830;-68
2023/05/04 23:04:25;;;;;;;;;6.00;6.00;;;;;;;;5033040;28;8924;-68
2023/05/04 23:06:52;;;;;;;;;8.50;7.75;;;;;;;;5032938;28;8915;-68
2023/05/04 23:09:17;;;;;;;;;8.00;7.00;;;;;;;;5032948;28;11572;-68
2023/05/04 23:11:43;;;;;;;;;7.00;6.00;;;;;;;;5032636;28;8862;-67
2023/05/04 23:14:08;;;;;;;;;8.00;7.00;;;;;;;;5031453;28;8803;-67
2023/05/04 23:16:33;;;;;;;;;7.00;7.00;;;;;;;;5032763;28;8873;-68
2023/05/04 23:18:59;;;;;;;;;9.50;8.00;;;;;;;;5048045;28;8839;-68
2023/05/04 23:21:24;;;;;;;;;10.00;8.00;;;;;;;;5032696;28;8831;-68
2023/05/04 23:23:50;;;;;;;;;6.50;6.50;;;;;;;;5032698;28;8819;-68
2023/05/04 23:26:15;;;;;;;;;8.75;8.75;;;;;;;;5031246;28;8811;-68
2023/05/04 23:28:41;;;;;;;;;7.50;7.50;;;;;;;;5031083;28;11096;-69
2023/05/04 23:31:06;;;;;;;;;7.75;7.75;;;;;;;;5032484;28;8827;-68
2023/05/04 23:33:31;;;;;;;;;8.25;8.25;;;;;;;;5032461;28;8928;-68
2023/05/04 23:35:57;;;;;;;;;8.00;7.25;;;;;;;;5032508;28;8807;-68
2023/05/04 23:38:22;;;;;;;;;6.00;6.00;;;;;;;;5032566;28;8784;-75
2023/05/04 23:40:48;;;;;;;;;7.00;7.00;;;;;;;;5031020;28;8820;-68
2023/05/04 23:43:13;;;;;;;;;6.50;6.50;;;;;;;;5032416;28;8926;-68
2023/05/04 23:45:38;;;;;;;;;6.75;6.50;;;;;;;;5030741;28;8839;-68
2023/05/04 23:48:04;;;;;;;;;6.50;6.50;;;;;;;;5032252;28;8799;-68
2023/05/04 23:50:29;;;;;;;;;8.50;7.50;;;;;;;;5032171;28;8834;-68
2023/05/04 23:52:54;;;;;;;;;6.00;5.00;;;;;;;;5032090;28;8815;-68
2023/05/04 23:55:19;;;;;;;;;5.00;5.00;;;;;;;;5032066;28;8889;-69
2023/05/04 23:57:45;;;;;;;;;7.00;7.00;;;;;;;;5032029;28;8811;-67
